Gainesville Regional Airport Gainesville US
ICAO: KGNV
IATA: GNV
Category: Medium
Scheduled Services: Yes

Elevation: 152 ft
TransAlt. 18000 ft.

Airport Communications:
JACKSONVILLE APP/DEP:118.175
ATIS:127.15
CTAF:119.55
GND:121.7
RDO:122.1
RDO:122.2
TWR:119.55
UNICOM:122.95

KGNV Zoom In..

Runways:

(A) RW 07 length 4158 ft width 100 ft
---- / hdg 65

(B) RW 11 length 7504 ft width 150 ft
---- / hdg 106

(C) RW 25 length 4158 ft width 100 ft
---- / hdg 245

(D) RW 29 length 7504 ft width 150 ft
ILS 111.30 / hdg 286

Location; KGNV
Day. 19 / Time. 20.53 Zulu
* Altimeter: 30.06
* Temperature: 28° c. 82.4°f.
* Wind from: 230° Speed 15 kn with Gusts up to 22 kn.
Dewpoint: 13° c.
Visibility: 10 Statute Miles.
Clouds: Clear (automated report).

KGNV 192053Z 23015G22KT 10SM CLR 28/13 A3006 RMK AO2 SLP177 T02830133 58012


Wind From 230°
Speed 15 kn.

  YouTube Music Video
 
jpsmedia.com for Web Design  worldairports.se 2018   terms of use